Time;durP1;ratioP1;P1;durP2;ratioP2;P2;SDS_P1;SDS_P2;PMS_P1;PMS_P2;Temp;Humidity;BMP_temperature;BMP_pressure;BME280_temperature;BME280_humidity;BME280_pressure;Samples;Min_cycle;Max_cycle;Signal;HPM_P1;HPM_P2
2022/01/30 00:01:24;;;;;;;12.00;7.65;;;;;;;-3.40;75.29;97946.00;4808436;29;20049;-71
2022/01/30 00:03:49;;;;;;;14.15;7.18;;;;;;;-3.34;75.40;97945.72;4812320;29;20087;-69
2022/01/30 00:06:14;;;;;;;14.25;7.97;;;;;;;-3.41;75.42;97933.88;4830757;29;20057;-68
2022/01/30 00:08:38;;;;;;;10.25;6.32;;;;;;;-3.39;75.52;97938.13;4838145;29;20049;-69
2022/01/30 00:11:12;;;;;;;12.25;7.60;;;;;;;-3.37;75.33;97938.03;4826409;29;20100;-72
2022/01/30 00:13:37;;;;;;;14.80;8.60;;;;;;;-3.52;74.76;97939.56;4842222;29;20072;-73
2022/01/30 00:16:05;;;;;;;16.65;8.48;;;;;;;-3.68;75.10;97933.28;4842629;29;20037;-71
2022/01/30 00:18:39;;;;;;;14.40;7.75;;;;;;;-3.54;76.02;97925.75;4842664;29;20432;-74
2022/01/30 00:23:39;;;;;;;9.98;6.88;;;;;;;-3.58;76.25;97918.13;4881411;29;20048;-72
2022/01/30 00:26:07;;;;;;;14.40;7.75;;;;;;;-3.68;76.13;97925.47;4879938;29;20127;-65
2022/01/30 00:28:33;;;;;;;14.20;7.85;;;;;;;-3.82;75.13;97914.78;4870571;29;20049;-63
2022/01/30 00:30:58;;;;;;;13.80;7.15;;;;;;;-3.74;75.93;97910.13;4870005;29;20831;-64
2022/01/30 00:33:23;;;;;;;13.75;7.00;;;;;;;-3.79;75.84;97902.50;4894212;29;20444;-64
2022/01/30 00:35:48;;;;;;;11.25;6.65;;;;;;;-3.76;75.30;97891.97;4869841;29;20104;-63
2022/01/30 00:38:18;;;;;;;11.65;6.60;;;;;;;-3.71;76.02;97894.34;4868396;29;20044;-66
2022/01/30 00:40:46;;;;;;;10.98;7.00;;;;;;;-3.58;77.10;97900.72;4862168;29;20500;-64
2022/01/30 00:43:12;;;;;;;15.63;6.80;;;;;;;-3.62;76.00;97882.72;4894552;29;21073;-64
2022/01/30 00:45:37;;;;;;;9.93;6.00;;;;;;;-3.61;76.78;97872.22;4872318;29;20059;-65
2022/01/30 00:48:02;;;;;;;10.45;6.00;;;;;;;-3.60;76.51;97865.25;4880455;29;20056;-64
2022/01/30 00:50:27;;;;;;;10.52;5.22;;;;;;;-3.64;75.56;97861.09;4863563;29;20050;-64
2022/01/30 00:52:55;;;;;;;10.75;6.00;;;;;;;-3.57;75.83;97850.34;4879670;29;20052;-63
2022/01/30 00:55:22;;;;;;;9.82;5.72;;;;;;;-3.61;74.82;97851.38;4880925;29;20055;-64
2022/01/30 00:57:46;;;;;;;9.45;5.28;;;;;;;-3.69;75.64;97843.06;4880983;29;20047;-66
2022/01/30 01:00:12;;;;;;;10.93;6.53;;;;;;;-3.76;74.72;97841.66;4879885;29;20503;-68
2022/01/30 01:02:37;;;;;;;11.88;6.07;;;;;;;-3.66;75.78;97833.38;4879026;29;20052;-65
2022/01/30 01:05:05;;;;;;;9.07;5.53;;;;;;;-3.62;75.95;97841.91;4880377;29;20054;-64
2022/01/30 01:07:32;;;;;;;9.30;5.78;;;;;;;-3.64;76.36;97837.66;4880418;29;20079;-69
2022/01/30 01:10:12;;;;;;;11.07;6.15;;;;;;;-3.68;74.89;97827.38;4879096;29;20075;-64
2022/01/30 01:23:28;;;;;;;8.00;4.70;;;;;;;-3.64;74.72;97799.44;4880332;29;20047;-72
2022/01/30 01:25:58;;;;;;;7.72;4.35;;;;;;;-3.54;75.55;97805.94;4879868;29;20048;-71
2022/01/30 01:28:23;;;;;;;7.18;4.47;;;;;;;-3.56;75.94;97796.50;4879153;29;20130;-68
2022/01/30 01:30:48;;;;;;;7.80;4.15;;;;;;;-3.66;74.34;97798.66;4880904;29;20147;-68
2022/01/30 01:33:14;;;;;;;6.43;4.10;;;;;;;-3.67;74.04;97795.22;4895170;29;20131;-69
2022/01/30 01:35:39;;;;;;;7.18;4.10;;;;;;;-3.58;74.50;97812.19;4878875;29;20051;-68
2022/01/30 01:38:04;;;;;;;6.43;3.88;;;;;;;-3.61;74.50;97796.69;4881063;29;20091;-70
2022/01/30 01:40:29;;;;;;;9.23;4.90;;;;;;;-3.62;74.01;97773.34;4878753;29;20048;-69
2022/01/30 01:42:55;;;;;;;7.18;4.50;;;;;;;-3.53;75.88;97786.81;4879891;29;20515;-68
2022/01/30 01:45:22;;;;;;;8.63;5.15;;;;;;;-3.52;75.44;97778.06;4879282;29;20055;-72
2022/01/30 01:47:47;;;;;;;6.90;4.43;;;;;;;-3.49;75.49;97772.69;4879935;29;20055;-70
2022/01/30 01:50:27;;;;;;;7.38;4.65;;;;;;;-3.62;73.46;97775.94;4879898;29;20044;-68
2022/01/30 01:52:51;;;;;;;7.50;4.32;;;;;;;-3.64;73.54;97778.63;4880435;29;20052;-68
2022/01/30 01:55:16;;;;;;;8.75;5.18;;;;;;;-3.64;73.81;97763.00;4883877;29;20047;-66
2022/01/30 01:57:42;;;;;;;7.45;4.25;;;;;;;-3.70;73.08;97771.91;4883268;29;20043;-68
2022/01/30 02:00:20;;;;;;;5.40;3.85;;;;;;;-3.60;73.46;97764.53;4861017;29;20125;-71
2022/01/30 02:02:45;;;;;;;6.50;4.38;;;;;;;-3.57;74.12;97763.56;4862097;29;20067;-69
2022/01/30 02:05:10;;;;;;;8.68;4.90;;;;;;;-3.63;73.01;97766.44;4860994;29;20590;-73
2022/01/30 02:10:31;;;;;;;5.75;3.83;;;;;;;-3.60;73.35;97748.91;4861566;29;20063;-74
2022/01/30 02:13:08;;;;;;;4.22;3.30;;;;;;;-3.63;73.88;97748.22;4867390;29;20503;-73
2022/01/30 02:24:06;;;;;;;5.20;3.58;;;;;;;-3.51;75.52;97711.22;4808567;29;20102;-73
2022/01/30 02:26:44;;;;;;;6.00;3.40;;;;;;;-3.60;76.17;97709.84;4794206;29;20534;-70
2022/01/30 02:29:11;;;;;;;7.75;4.20;;;;;;;-3.74;75.85;97705.28;4808700;29;20434;-71
2022/01/30 02:31:38;;;;;;;5.28;3.42;;;;;;;-3.87;75.11;97705.91;4792647;29;20597;-71
2022/01/30 02:34:03;;;;;;;6.93;4.68;;;;;;;-4.06;73.71;97709.28;4791729;29;20080;-70
2022/01/30 02:36:28;;;;;;;5.25;3.08;;;;;;;-3.75;75.69;97707.97;4790870;29;20046;-70
2022/01/30 02:38:57;;;;;;;7.45;4.28;;;;;;;-3.74;76.40;97691.41;4807235;29;20057;-71
2022/01/30 02:41:22;;;;;;;6.93;3.63;;;;;;;-3.80;75.83;97687.31;4807176;29;20056;-70
2022/01/30 02:43:54;;;;;;;4.90;3.72;;;;;;;-3.86;76.26;97691.97;4806871;29;20493;-72
2022/01/30 02:46:28;;;;;;;3.22;2.47;;;;;;;-3.67;76.64;97687.63;4806258;29;20065;-72
2022/01/30 02:48:57;;;;;;;4.73;3.07;;;;;;;-3.72;75.82;97679.16;4806601;29;20111;-70
2022/01/30 02:51:24;;;;;;;4.50;2.67;;;;;;;-3.76;76.05;97685.44;4806444;29;20045;-71
2022/01/30 02:54:03;;;;;;;10.00;4.80;;;;;;;-3.94;76.18;97683.63;4806344;29;20053;-73
2022/01/30 02:56:34;;;;;;;5.40;3.97;;;;;;;-4.01;76.02;97675.28;4862097;29;20086;-70
2022/01/30 02:58:59;;;;;;;5.95;3.92;;;;;;;-3.91;76.98;97675.72;4862977;29;20447;-74
2022/01/30 03:01:23;;;;;;;8.82;5.32;;;;;;;-4.33;75.99;97668.91;4862668;29;20431;-73
2022/01/30 03:03:51;;;;;;;7.50;4.22;;;;;;;-4.18;76.16;97667.38;4863140;29;20053;-72
2022/01/30 03:06:16;;;;;;;8.63;5.07;;;;;;;-4.18;75.90;97665.63;4846977;29;20079;-69
2022/01/30 03:08:41;;;;;;;6.78;3.90;;;;;;;-4.06;76.31;97662.47;4878064;29;20056;-61
2022/01/30 03:11:06;;;;;;;7.70;4.45;;;;;;;-4.02;76.68;97671.81;4868382;29;20044;-61
2022/01/30 03:13:31;;;;;;;8.52;4.85;;;;;;;-4.02;76.18;97674.44;4871719;29;20036;-62
2022/01/30 03:15:56;;;;;;;8.05;4.90;;;;;;;-4.08;76.29;97661.72;4870362;29;20115;-62
2022/01/30 03:18:20;;;;;;;6.88;4.32;;;;;;;-4.14;76.48;97661.13;4871410;29;20107;-61
2022/01/30 03:20:45;;;;;;;6.75;4.15;;;;;;;-4.07;76.73;97655.59;4872801;29;20480;-60
2022/01/30 03:23:10;;;;;;;6.90;4.20;;;;;;;-4.04;76.29;97660.63;4867888;29;20060;-60
2022/01/30 03:25:35;;;;;;;6.80;4.47;;;;;;;-4.06;76.92;97643.41;4895216;29;20511;-61
2022/01/30 03:28:23;;;;;;;6.45;3.60;;;;;;;-4.03;76.36;97649.31;4892000;29;20140;-63
2022/01/30 03:30:58;;;;;;;7.75;5.22;;;;;;;-4.13;75.78;97649.81;4869070;29;21046;-62
2022/01/30 03:33:33;;;;;;;6.80;3.85;;;;;;;-3.99;76.65;97641.38;4880141;29;20055;-62
2022/01/30 03:35:58;;;;;;;6.70;5.07;;;;;;;-3.91;76.79;97634.91;4872361;29;20043;-62
2022/01/30 03:38:24;;;;;;;5.47;4.00;;;;;;;-3.95;75.76;97638.56;4877545;29;20048;-62
2022/01/30 03:40:50;;;;;;;5.50;3.85;;;;;;;-3.89;76.64;97637.44;4853583;29;20044;-62
2022/01/30 03:43:16;;;;;;;6.18;3.65;;;;;;;-3.92;75.41;97628.00;4871378;29;20051;-62
2022/01/30 03:45:42;;;;;;;5.05;3.80;;;;;;;-3.87;76.20;97627.81;4870690;29;20511;-62
2022/01/30 03:48:07;;;;;;;7.18;4.40;;;;;;;-3.93;75.42;97620.28;4870973;29;20056;-62
2022/01/30 03:50:53;;;;;;;7.35;5.18;;;;;;;-4.08;75.23;97611.44;4879059;29;20070;-62
2022/01/30 03:53:18;;;;;;;7.18;4.78;;;;;;;-4.02;75.44;97606.78;4880205;29;20052;-62
2022/01/30 03:55:42;;;;;;;8.48;3.95;;;;;;;-3.97;75.53;97590.97;4880283;29;20151;-62
2022/01/30 03:58:14;;;;;;;4.82;3.30;;;;;;;-3.61;76.46;97590.97;4880181;29;20420;-62
2022/01/30 04:00:41;;;;;;;6.82;4.30;;;;;;;-3.74;76.48;97584.69;4880160;29;20044;-61
2022/01/30 04:03:06;;;;;;;7.30;4.13;;;;;;;-3.74;76.25;97595.09;4880027;29;20055;-63
2022/01/30 04:05:31;;;;;;;6.65;4.28;;;;;;;-4.03;76.13;97594.66;4880197;29;20059;-70
2022/01/30 04:08:01;;;;;;;4.88;3.92;;;;;;;-4.13;75.38;97588.19;4880501;29;20144;-70
2022/01/30 04:10:35;;;;;;;5.15;3.00;;;;;;;-4.03;75.99;97584.25;4879022;29;20474;-69
2022/01/30 04:13:20;;;;;;;3.42;1.92;;;;;;;-3.95;76.18;97585.69;4880141;29;20178;-69
2022/01/30 04:16:03;;;;;;;5.97;3.75;;;;;;;-4.04;75.62;97571.31;4881487;29;20048;-72
2022/01/30 04:18:58;;;;;;;4.28;3.13;;;;;;;-3.95;75.96;97575.28;4822887;29;20058;-69
2022/01/30 04:21:49;;;;;;;4.07;3.03;;;;;;;-3.89;76.14;97574.97;4814052;29;20181;-71
2022/01/30 04:24:16;;;;;;;5.32;3.80;;;;;;;-4.10;76.03;97562.06;4823020;29;20591;-70
2022/01/30 04:27:04;;;;;;;5.50;3.38;;;;;;;-4.07;75.86;97574.94;4815001;29;20454;-70
2022/01/30 04:29:54;;;;;;;4.10;2.95;;;;;;;-4.06;76.31;97560.97;4803830;29;20066;-70
2022/01/30 04:32:40;;;;;;;3.05;2.70;;;;;;;-4.06;76.15;97568.78;4804845;29;20505;-70
2022/01/30 04:35:26;;;;;;;6.60;3.70;;;;;;;-4.13;75.89;97550.94;4789254;29;20053;-70
2022/01/30 04:53:15;;;;;;;4.55;3.25;;;;;;;-4.03;75.91;97529.63;4823400;29;20041;-70
2022/01/30 04:58:33;;;;;;;5.50;3.05;;;;;;;-4.33;76.01;97532.81;4862349;29;20461;-70
2022/01/30 05:01:38;;;;;;;5.32;3.33;;;;;;;-4.09;76.49;97526.47;4861239;29;20380;-70
2022/01/30 05:09:42;;;;;;;4.60;3.40;;;;;;;-4.24;75.58;97541.03;4861734;29;20053;-70
2022/01/30 05:12:32;;;;;;;3.67;2.40;;;;;;;-4.34;76.32;97533.72;4861746;29;20040;-69
2022/01/30 05:15:19;;;;;;;6.22;3.70;;;;;;;-4.44;76.56;97521.13;4860112;29;20427;-70
2022/01/30 05:18:03;;;;;;;6.18;2.83;;;;;;;-4.36;76.28;97533.78;4862088;29;20621;-71
2022/01/30 05:20:40;;;;;;;4.63;2.55;;;;;;;-4.23;76.49;97529.72;4861481;29;20052;-70
2022/01/30 05:23:20;;;;;;;5.07;3.03;;;;;;;-4.18;76.74;97524.31;4860935;29;20048;-70
2022/01/30 05:25:53;;;;;;;5.32;3.35;;;;;;;-4.31;75.82;97523.19;4861380;29;20160;-72
2022/01/30 05:28:24;;;;;;;1.35;1.25;;;;;;;-4.14;76.64;97526.69;4876993;29;20560;-71
2022/01/30 05:31:08;;;;;;;2.72;1.92;;;;;;;-4.09;76.58;97518.66;4862094;29;20076;-70
2022/01/30 05:33:59;;;;;;;4.85;2.78;;;;;;;-4.19;76.13;97507.84;4861566;29;20475;-70
2022/01/30 05:37:02;;;;;;;2.92;1.98;;;;;;;-4.18;76.80;97514.75;4842142;29;20528;-70
2022/01/30 05:39:46;;;;;;;2.45;1.77;;;;;;;-4.25;76.19;97508.13;4841302;29;20041;-72
2022/01/30 05:42:36;;;;;;;3.33;2.22;;;;;;;-4.21;76.25;97512.28;4833747;29;20061;-70
2022/01/30 05:46:05;;;;;;;4.97;3.10;;;;;;;-4.18;76.54;97509.53;4812041;29;20048;-69
2022/01/30 05:48:24;;;;;;;1.88;1.45;;;;;;;-4.06;76.64;97506.34;4844631;29;20099;-71
2022/01/30 05:50:59;;;;;;;3.33;2.50;;;;;;;-4.02;76.54;97496.63;4829152;29;20048;-71
2022/01/30 05:53:47;;;;;;;4.75;3.05;;;;;;;-4.15;75.89;97498.97;4771885;29;20062;-71
2022/01/30 05:56:15;;;;;;;4.35;2.15;;;;;;;-4.09;76.21;97501.28;4756841;29;20066;-71
2022/01/30 05:58:40;;;;;;;3.25;2.50;;;;;;;-4.12;76.64;97496.22;4741708;29;20058;-70
2022/01/30 06:01:16;;;;;;;4.95;2.88;;;;;;;-4.21;76.11;97499.25;4758314;29;20557;-71
2022/01/30 06:03:41;;;;;;;3.15;2.58;;;;;;;-4.16;76.59;97489.47;4756928;29;20652;-70
2022/01/30 06:06:08;;;;;;;3.42;2.65;;;;;;;-4.11;75.91;97487.50;4756284;29;20086;-70
2022/01/30 06:11:03;;;;;;;2.60;1.73;;;;;;;-3.83;76.15;97484.41;4807462;29;20490;-69
2022/01/30 06:13:29;;;;;;;2.08;1.88;;;;;;;-3.76;76.84;97485.81;4792060;29;20060;-70
2022/01/30 06:15:54;;;;;;;3.58;2.53;;;;;;;-3.98;76.25;97484.31;4792034;29;20156;-71
2022/01/30 06:18:19;;;;;;;4.90;3.22;;;;;;;-3.98;76.43;97473.91;4791899;29;20080;-70
2022/01/30 06:21:02;;;;;;;4.57;2.83;;;;;;;-3.91;76.49;97477.91;4807351;29;20046;-71
2022/01/30 06:23:45;;;;;;;2.25;1.63;;;;;;;-3.98;76.48;97477.38;4794336;29;20061;-70
2022/01/30 06:26:29;;;;;;;2.70;2.33;;;;;;;-3.99;76.44;97480.03;4807270;29;20049;-70
2022/01/30 06:29:13;;;;;;;1.67;1.25;;;;;;;-4.00;76.63;97481.78;4807214;29;20060;-69
2022/01/30 06:32:04;;;;;;;3.70;2.90;;;;;;;-4.24;75.84;97483.78;4825404;29;20476;-70
2022/01/30 06:34:55;;;;;;;3.50;2.28;;;;;;;-4.24;76.50;97478.59;4806902;29;20061;-71
2022/01/30 06:37:22;;;;;;;3.83;2.28;;;;;;;-3.97;77.24;97480.81;4806822;29;20061;-71
2022/01/30 06:40:13;;;;;;;5.60;3.13;;;;;;;-4.04;76.13;97488.91;4804948;29;20061;-71
2022/01/30 06:42:56;;;;;;;2.97;2.55;;;;;;;-4.10;75.76;97478.78;4806755;29;20053;-70
2022/01/30 06:45:42;;;;;;;3.55;2.50;;;;;;;-4.27;75.65;97481.34;4791092;29;20058;-62
2022/01/30 06:48:27;;;;;;;2.88;1.80;;;;;;;-4.20;84.58;97472.34;4757654;29;20073;-62
2022/01/30 06:51:17;;;;;;;3.97;1.73;;;;;;;-4.16;86.95;97478.22;4770202;29;20101;-63
2022/01/30 06:54:00;;;;;;;2.88;1.90;;;;;;;-4.21;88.00;97472.41;4770443;29;20062;-63
2022/01/30 06:56:44;;;;;;;3.63;2.45;;;;;;;-4.28;88.28;97468.38;4770277;29;20131;-63
2022/01/30 06:59:27;;;;;;;3.38;2.15;;;;;;;-4.11;88.82;97471.91;4770582;29;20099;-65
2022/01/30 07:02:11;;;;;;;2.13;1.50;;;;;;;-4.05;89.43;97470.75;4770355;29;20104;-62
2022/01/30 07:04:54;;;;;;;2.50;1.60;;;;;;;-3.95;89.00;97465.97;4770174;29;20096;-62
2022/01/30 07:07:40;;;;;;;3.95;2.42;;;;;;;-3.95;87.79;97468.56;4770011;29;20511;-64
2022/01/30 07:10:07;;;;;;;3.70;2.55;;;;;;;-3.92;85.60;97465.81;4787529;29;20053;-63
2022/01/30 07:12:32;;;;;;;3.83;2.20;;;;;;;-3.64;80.91;97462.72;4773011;29;20078;-64
2022/01/30 07:14:56;;;;;;;5.00;2.15;;;;;;;-4.17;78.08;97450.50;4772911;29;20046;-62
2022/01/30 07:17:21;;;;;;;2.50;1.48;;;;;;;-3.79;76.11;97467.75;4773283;29;20053;-63
2022/01/30 07:19:46;;;;;;;3.30;2.15;;;;;;;-3.99;74.72;97454.00;4788445;29;20050;-63
2022/01/30 07:22:10;;;;;;;1.40;1.30;;;;;;;-3.81;74.79;97447.91;4788403;29;20065;-63
2022/01/30 07:24:35;;;;;;;2.22;1.52;;;;;;;-3.75;74.27;97458.03;4794537;29;20537;-65
2022/01/30 07:27:00;;;;;;;2.90;1.73;;;;;;;-3.87;73.77;97449.06;4862978;29;20594;-63
2022/01/30 07:29:25;;;;;;;3.53;2.28;;;;;;;-3.88;74.12;97446.53;4862863;29;20055;-63
2022/01/30 07:31:50;;;;;;;1.05;0.95;;;;;;;-3.81;74.87;97445.31;4864671;29;20420;-65
2022/01/30 07:34:15;;;;;;;2.83;2.20;;;;;;;-4.19;74.84;97448.00;4868944;29;20048;-62
2022/01/30 07:36:41;;;;;;;4.95;2.80;;;;;;;-4.16;75.14;97445.25;4867227;29;20052;-63
2022/01/30 07:39:08;;;;;;;1.67;1.58;;;;;;;-3.95;74.97;97452.97;4862759;29;20044;-65
2022/01/30 07:41:33;;;;;;;4.85;2.80;;;;;;;-3.94;74.34;97452.00;4863644;29;20043;-64
2022/01/30 07:44:01;;;;;;;2.60;2.15;;;;;;;-4.13;74.04;97455.50;4877912;29;20571;-64
2022/01/30 07:46:28;;;;;;;1.85;1.48;;;;;;;-3.98;74.66;97442.69;4861553;29;20151;-62
2022/01/30 07:48:53;;;;;;;3.42;2.22;;;;;;;-3.79;73.91;97435.66;4863318;29;20123;-63
2022/01/30 07:51:18;;;;;;;5.63;3.15;;;;;;;-3.91;74.10;97431.91;4877420;29;20136;-63
2022/01/30 07:53:42;;;;;;;2.40;1.65;;;;;;;-3.76;74.42;97436.34;4863121;29;20044;-63
2022/01/30 07:56:07;;;;;;;1.75;1.17;;;;;;;-3.65;74.14;97433.22;4877553;29;20052;-64
2022/01/30 07:58:31;;;;;;;3.85;2.58;;;;;;;-3.63;74.04;97430.53;4863113;29;20050;-63
2022/01/30 08:00:56;;;;;;;3.20;2.25;;;;;;;-3.69;73.20;97432.53;4878028;29;20642;-63
2022/01/30 08:03:22;;;;;;;2.65;2.45;;;;;;;-3.79;72.88;97427.84;4863312;29;20109;-62
2022/01/30 08:05:47;;;;;;;4.07;2.28;;;;;;;-3.77;73.48;97426.03;4845558;29;20048;-62
2022/01/30 08:08:12;;;;;;;3.03;1.20;;;;;;;-3.73;73.23;97424.97;4862464;29;20047;-62
2022/01/30 08:10:36;;;;;;;3.55;2.47;;;;;;;-3.96;72.91;97422.66;4862738;29;20059;-62
2022/01/30 08:13:01;;;;;;;2.78;2.03;;;;;;;-3.88;73.33;97438.72;4862586;29;20139;-65
2022/01/30 08:15:26;;;;;;;1.08;0.93;;;;;;;-3.59;73.57;97416.44;4862714;29;20423;-62
2022/01/30 08:17:51;;;;;;;2.38;2.17;;;;;;;-3.75;73.15;97427.63;4861945;29;20416;-63
2022/01/30 08:20:16;;;;;;;3.10;2.00;;;;;;;-3.83;72.82;97423.69;4862836;29;20048;-64
2022/01/30 08:22:52;;;;;;;2.30;1.85;;;;;;;-3.64;72.78;97427.09;4862417;29;20059;-63
2022/01/30 08:25:18;;;;;;;2.83;2.00;;;;;;;-3.77;72.86;97424.25;4862559;29;20044;-63
2022/01/30 08:27:43;;;;;;;3.13;2.05;;;;;;;-3.74;72.52;97426.72;4861305;29;20104;-64
2022/01/30 08:30:08;;;;;;;4.68;2.85;;;;;;;-3.75;72.28;97424.19;4861255;29;20492;-62
2022/01/30 08:32:46;;;;;;;3.45;1.98;;;;;;;-3.61;72.43;97426.91;4862291;29;20495;-62
2022/01/30 08:35:14;;;;;;;3.53;2.65;;;;;;;-3.84;71.21;97429.84;4862413;29;20063;-63
2022/01/30 08:37:39;;;;;;;3.70;2.53;;;;;;;-3.64;72.70;97424.50;4865498;29;20052;-62
2022/01/30 08:40:17;;;;;;;2.13;1.55;;;;;;;-3.62;72.46;97414.84;4875125;29;20084;-62
2022/01/30 08:42:43;;;;;;;5.90;2.83;;;;;;;-3.73;72.37;97415.38;4873953;29;20133;-61
2022/01/30 08:45:09;;;;;;;4.15;2.38;;;;;;;-3.70;72.48;97406.56;4866620;29;20412;-65
2022/01/30 08:47:33;;;;;;;4.88;2.75;;;;;;;-3.52;72.78;97400.44;4877414;29;20132;-63
2022/01/30 08:49:58;;;;;;;3.75;2.42;;;;;;;-3.41;72.13;97394.69;4862998;29;20127;-64
2022/01/30 08:52:23;;;;;;;3.72;1.95;;;;;;;-3.12;71.47;97393.16;4862560;29;20080;-64
2022/01/30 08:54:52;;;;;;;3.55;2.22;;;;;;;-2.87;71.57;97405.72;4862134;29;20123;-63
2022/01/30 08:57:17;;;;;;;2.67;2.10;;;;;;;-2.77;70.24;97396.47;4862299;29;20515;-63
2022/01/30 08:59:42;;;;;;;2.70;1.48;;;;;;;-2.57;70.35;97393.63;4861752;29;20523;-63
2022/01/30 09:02:08;;;;;;;2.13;1.55;;;;;;;-2.21;70.94;97388.97;4862050;29;20479;-63
2022/01/30 09:04:33;;;;;;;2.22;1.35;;;;;;;-2.04;70.01;97389.81;4861454;29;20055;-64
2022/01/30 09:06:57;;;;;;;1.33;1.23;;;;;;;-1.81;69.02;97378.88;4861408;29;20135;-62
2022/01/30 09:09:22;;;;;;;1.67;1.33;;;;;;;-1.75;68.71;97385.50;4861461;29;20051;-64
2022/01/30 09:11:47;;;;;;;2.25;1.58;;;;;;;-2.03;67.70;97378.44;4861566;29;20048;-62
2022/01/30 09:14:12;;;;;;;2.45;1.65;;;;;;;-2.05;66.85;97364.63;4861728;29;20048;-63
2022/01/30 09:16:37;;;;;;;2.20;1.77;;;;;;;-2.02;67.32;97364.44;4876373;29;20056;-63
2022/01/30 09:19:01;;;;;;;3.35;1.67;;;;;;;-1.59;68.08;97360.19;4861580;29;20044;-62
2022/01/30 09:21:28;;;;;;;1.80;1.50;;;;;;;-1.60;67.48;97361.13;4861114;29;20083;-64
2022/01/30 09:23:53;;;;;;;1.85;1.63;;;;;;;-1.20;66.55;97351.72;4861839;29;20048;-62
2022/01/30 09:26:18;;;;;;;2.72;2.20;;;;;;;-0.89;64.31;97359.34;4861534;29;20051;-63
2022/01/30 09:28:43;;;;;;;3.20;2.25;;;;;;;-0.50;63.81;97348.16;4861577;29;20052;-64
2022/01/30 09:31:08;;;;;;;3.58;2.10;;;;;;;-0.05;64.70;97343.53;4861256;29;20052;-64
2022/01/30 09:33:34;;;;;;;3.55;2.40;;;;;;;0.61;63.34;97343.41;4876067;29;20108;-63
2022/01/30 09:35:59;;;;;;;3.15;2.35;;;;;;;1.50;61.27;97332.78;4861254;29;20045;-63
2022/01/30 09:38:24;;;;;;;12.27;2.40;;;;;;;2.49;59.12;97323.63;4861509;29;20048;-63
2022/01/30 09:40:53;;;;;;;2.35;1.85;;;;;;;3.18;57.28;97332.31;4860105;29;20048;-63
2022/01/30 09:43:17;;;;;;;3.63;2.17;;;;;;;3.54;58.00;97318.03;4861948;29;20041;-63
2022/01/30 09:45:42;;;;;;;3.78;2.47;;;;;;;3.43;56.87;97322.47;4861307;29;20052;-63
2022/01/30 09:48:08;;;;;;;3.85;2.85;;;;;;;2.40;51.08;97320.88;4859780;29;20052;-64
2022/01/30 09:50:35;;;;;;;3.60;2.58;;;;;;;2.73;56.39;97330.63;4861196;29;20135;-63
2022/01/30 09:53:00;;;;;;;3.50;2.38;;;;;;;2.23;57.38;97334.44;4861523;29;20074;-64
2022/01/30 09:55:26;;;;;;;3.40;2.53;;;;;;;1.60;58.58;97327.69;4861177;29;20056;-66
2022/01/30 09:57:52;;;;;;;4.50;2.60;;;;;;;1.22;60.30;97336.56;4861509;29;20040;-64
2022/01/30 10:00:17;;;;;;;3.25;1.55;;;;;;;0.57;58.27;97338.47;4862708;29;20089;-63
2022/01/30 10:02:43;;;;;;;2.30;1.73;;;;;;;0.19;59.38;97325.34;4862248;29;20057;-63
2022/01/30 10:05:08;;;;;;;2.08;1.85;;;;;;;-0.32;61.33;97324.34;4862579;29;20419;-64
2022/01/30 10:07:52;;;;;;;3.47;2.47;;;;;;;-0.58;63.24;97321.66;4864166;29;20143;-64
2022/01/30 10:10:19;;;;;;;3.03;1.95;;;;;;;-0.61;63.01;97328.84;4862822;29;20551;-63
2022/01/30 10:13:05;;;;;;;3.25;1.48;;;;;;;-0.48;61.52;97312.28;4862285;29;20132;-63
2022/01/30 10:15:48;;;;;;;3.40;2.30;;;;;;;-0.80;63.46;97311.72;4863734;29;20181;-65
2022/01/30 10:18:14;;;;;;;4.55;3.10;;;;;;;-1.08;63.16;97316.97;4860683;29;20048;-64
2022/01/30 10:20:40;;;;;;;2.60;1.92;;;;;;;-0.96;65.18;97318.00;4875275;29;20049;-64
2022/01/30 10:23:09;;;;;;;3.13;2.58;;;;;;;-1.09;63.82;97307.44;4861201;29;20056;-64
2022/01/30 10:25:37;;;;;;;2.28;1.73;;;;;;;-0.93;65.65;97296.88;4860874;29;20044;-64
2022/01/30 10:28:05;;;;;;;3.78;2.78;;;;;;;-1.28;63.23;97299.06;4860972;29;20415;-65
2022/01/30 10:30:38;;;;;;;7.70;3.08;;;;;;;-1.27;64.82;97298.13;4859354;29;20044;-64
2022/01/30 10:33:03;;;;;;;5.67;3.23;;;;;;;-1.19;65.65;97307.19;4864029;29;20048;-63
2022/01/30 10:35:28;;;;;;;3.88;3.00;;;;;;;-1.07;66.14;97297.75;4864498;29;20051;-63
2022/01/30 10:37:54;;;;;;;4.13;2.55;;;;;;;-0.98;64.75;97293.72;4863606;29;20048;-70
2022/01/30 10:40:27;;;;;;;5.28;3.40;;;;;;;-1.28;63.13;97289.47;4863661;29;20104;-72
2022/01/30 10:42:52;;;;;;;3.13;2.28;;;;;;;-1.18;65.82;97292.34;4864855;29;20083;-71
2022/01/30 10:45:31;;;;;;;3.30;2.20;;;;;;;-1.00;65.64;97282.50;4864494;29;20497;-72
2022/01/30 10:48:17;;;;;;;4.47;3.67;;;;;;;-1.19;65.41;97277.59;4864434;29;20147;-71
2022/01/30 10:50:44;;;;;;;2.75;2.22;;;;;;;-1.29;65.86;97286.94;4879122;29;20597;-71
2022/01/30 10:53:21;;;;;;;3.38;2.67;;;;;;;-1.16;67.28;97278.25;4879348;29;20620;-71
2022/01/30 10:55:47;;;;;;;3.40;2.33;;;;;;;-1.15;66.89;97269.47;4863255;29;20507;-72
2022/01/30 10:58:15;;;;;;;3.65;2.58;;;;;;;-1.33;66.92;97269.75;4864635;29;20048;-70
2022/01/30 11:00:49;;;;;;;4.13;3.00;;;;;;;-1.29;66.56;97260.81;4866019;29;20415;-70
2022/01/30 11:03:50;;;;;;;3.65;2.72;;;;;;;-1.25;67.64;97259.69;4866892;29;20112;-73
2022/01/30 11:06:15;;;;;;;3.55;2.20;;;;;;;-1.31;66.85;97247.81;4866258;29;20140;-71
2022/01/30 11:08:45;;;;;;;2.90;2.28;;;;;;;-1.45;67.05;97255.66;4866917;29;20048;-72
2022/01/30 11:14:00;;;;;;;4.35;2.13;;;;;;;-1.46;67.79;97243.53;4880574;29;20078;-70
2022/01/30 11:19:12;;;;;;;3.00;2.70;;;;;;;-1.74;67.45;97240.94;4912291;29;20056;-72
2022/01/30 11:21:39;;;;;;;3.00;2.00;;;;;;;-1.73;67.47;97248.69;4877177;29;20047;-74
2022/01/30 11:24:05;;;;;;;4.90;2.95;;;;;;;-1.96;68.03;97231.78;4880994;29;20053;-73
2022/01/30 11:26:30;;;;;;;4.55;3.10;;;;;;;-1.94;68.14;97231.69;4873786;29;20543;-73
2022/01/30 11:28:57;;;;;;;5.82;2.72;;;;;;;-1.96;68.50;97230.94;4863928;29;20492;-71
2022/01/30 11:31:23;;;;;;;3.60;2.15;;;;;;;-1.62;67.80;97221.91;4862660;29;20101;-73
2022/01/30 11:33:50;;;;;;;3.97;2.65;;;;;;;-1.71;67.41;97219.88;4862621;29;20040;-71
2022/01/30 11:36:15;;;;;;;3.67;2.55;;;;;;;-1.85;68.03;97211.09;4868770;29;20522;-71
2022/01/30 11:38:40;;;;;;;4.22;3.28;;;;;;;-1.94;68.50;97200.38;4875379;29;20056;-70
2022/01/30 11:41:15;;;;;;;3.63;1.92;;;;;;;-1.79;68.89;97209.88;4873444;29;20115;-71
2022/01/30 11:43:40;;;;;;;2.60;2.20;;;;;;;-1.89;68.73;97206.97;4868880;29;20073;-71
2022/01/30 11:46:13;;;;;;;3.25;2.50;;;;;;;-1.95;68.96;97196.91;4871882;29;20052;-72
2022/01/30 11:48:38;;;;;;;5.10;3.03;;;;;;;-1.80;69.78;97196.91;4871368;29;20071;-71
2022/01/30 11:51:03;;;;;;;4.97;3.13;;;;;;;-1.81;68.81;97188.25;4875730;29;20127;-73
2022/01/30 11:53:28;;;;;;;3.45;2.30;;;;;;;-1.78;68.87;97198.50;4878997;29;20450;-71
2022/01/30 11:56:01;;;;;;;3.85;2.90;;;;;;;-1.93;68.39;97200.28;4865995;29;20032;-73
2022/01/30 11:58:29;;;;;;;4.15;2.45;;;;;;;-1.79;68.22;97202.03;4865807;29;20075;-72
2022/01/30 12:00:54;;;;;;;3.83;2.53;;;;;;;-1.98;68.81;97202.31;4882834;29;20059;-71
2022/01/30 12:03:29;;;;;;;3.22;2.45;;;;;;;-2.00;69.71;97206.78;4872723;29;20040;-72
2022/01/30 12:05:56;;;;;;;3.70;2.95;;;;;;;-1.80;69.13;97197.75;4877633;29;20414;-72
2022/01/30 12:08:59;;;;;;;3.00;2.67;;;;;;;-1.83;69.55;97204.00;4881877;29;20110;-72
2022/01/30 12:11:47;;;;;;;2.90;2.17;;;;;;;-1.83;68.38;97203.16;4882148;29;20048;-72
2022/01/30 12:14:21;;;;;;;3.78;2.35;;;;;;;-1.90;68.10;97207.06;4882085;29;20043;-74
2022/01/30 12:16:46;;;;;;;4.80;3.40;;;;;;;-2.08;68.85;97198.59;4880670;29;20043;-67
2022/01/30 12:19:19;;;;;;;5.10;3.53;;;;;;;-2.07;68.56;97196.81;4873182;29;20059;-68
2022/01/30 12:21:44;;;;;;;5.63;3.60;;;;;;;-2.21;68.92;97219.34;4871607;29;20043;-68
2022/01/30 12:24:26;;;;;;;5.03;3.30;;;;;;;-2.18;68.92;97210.50;4872687;29;20036;-66
2022/01/30 12:26:52;;;;;;;6.00;3.75;;;;;;;-2.22;69.89;97206.38;4875165;29;20125;-68
2022/01/30 12:29:40;;;;;;;2.33;2.03;;;;;;;-2.10;70.44;97203.06;4881132;29;20111;-68
2022/01/30 12:32:21;;;;;;;4.68;3.03;;;;;;;-2.08;70.26;97209.03;4869163;29;20757;-68
2022/01/30 12:34:49;;;;;;;4.85;3.13;;;;;;;-2.05;68.65;97208.84;4880780;29;20485;-68
2022/01/30 12:37:25;;;;;;;3.70;3.05;;;;;;;-2.03;68.81;97217.41;4881594;29;20551;-66
2022/01/30 12:39:52;;;;;;;3.35;2.60;;;;;;;-2.06;68.38;97220.22;4881252;29;20411;-68
2022/01/30 12:42:18;;;;;;;4.55;3.03;;;;;;;-2.26;68.75;97210.13;4879998;29;20048;-68
2022/01/30 12:44:44;;;;;;;4.20;2.75;;;;;;;-2.38;69.39;97203.03;4881165;29;20048;-67
2022/01/30 12:47:08;;;;;;;3.67;2.53;;;;;;;-2.33;70.17;97200.97;4879805;29;20582;-68